Time;durP1;ratioP1;P1;durP2;ratioP2;P2;SDS_P1;SDS_P2;PMS_P1;PMS_P2;Temp;Humidity;BMP_temperature;BMP_pressure;BME280_temperature;BME280_humidity;BME280_pressure;Samples;Min_cycle;Max_cycle;Signal;HPM_P1;HPM_P2
2022/05/04 00:02:35;;;;;;;1.25;0.85;;;;;;;12.11;100.00;99183.03;6225960;23;20040;-61
2022/05/04 00:05:22;;;;;;;3.67;1.10;;;;;;;12.05;100.00;99185.91;6181690;23;20351;-61
2022/05/04 00:08:07;;;;;;;3.00;1.10;;;;;;;11.94;100.00;99205.78;6181306;23;20335;-62
2022/05/04 00:10:52;;;;;;;3.75;1.17;;;;;;;12.07;100.00;99199.16;6225664;23;20023;-63
2022/05/04 00:13:36;;;;;;;2.92;1.27;;;;;;;12.09;100.00;99184.00;6225202;23;20099;-62
2022/05/04 00:16:21;;;;;;;3.08;1.10;;;;;;;11.83;100.00;99162.81;6225065;23;20402;-61
2022/05/04 00:19:05;;;;;;;2.33;1.35;;;;;;;11.90;100.00;99185.56;6225480;23;20445;-62
2022/05/04 00:21:50;;;;;;;2.65;1.30;;;;;;;11.64;100.00;99174.97;6225498;23;20433;-61
2022/05/04 00:24:34;;;;;;;2.00;1.20;;;;;;;11.79;100.00;99206.34;6225280;23;20102;-62
2022/05/04 00:27:19;;;;;;;2.38;1.63;;;;;;;11.78;100.00;99199.28;6224965;23;20019;-62
2022/05/04 00:30:05;;;;;;;3.55;1.63;;;;;;;11.82;100.00;99217.72;6202641;23;20370;-61
2022/05/04 00:32:50;;;;;;;4.00;1.65;;;;;;;11.43;100.00;99186.28;6214640;23;20382;-62
2022/05/04 00:35:35;;;;;;;4.10;1.70;;;;;;;11.44;100.00;99207.44;6225077;23;20345;-62
2022/05/04 00:38:19;;;;;;;3.42;1.45;;;;;;;11.32;100.00;99173.34;6225438;23;20022;-62
2022/05/04 00:41:04;;;;;;;5.43;1.80;;;;;;;11.53;100.00;99199.19;6225133;23;20023;-62
2022/05/04 00:43:53;;;;;;;3.38;1.50;;;;;;;11.62;100.00;99214.84;6225257;23;20059;-63
2022/05/04 00:46:38;;;;;;;2.38;1.38;;;;;;;11.57;100.00;99213.25;6203032;23;20323;-63
2022/05/04 00:49:22;;;;;;;4.20;1.70;;;;;;;11.52;100.00;99209.88;6224909;23;20123;-63
2022/05/04 00:52:08;;;;;;;4.18;1.40;;;;;;;11.52;100.00;99224.00;6225208;23;20338;-63
2022/05/04 00:54:53;;;;;;;2.92;1.75;;;;;;;11.53;100.00;99224.88;6225057;23;20106;-64
2022/05/04 01:00:48;;;;;;;3.17;1.23;;;;;;;11.44;100.00;99222.53;6224872;23;20069;-61
2022/05/04 01:03:32;;;;;;;4.07;1.65;;;;;;;11.32;100.00;99209.66;6198732;23;20067;-61
2022/05/04 01:06:17;;;;;;;4.32;1.80;;;;;;;11.29;100.00;99218.56;6213553;23;20066;-61
2022/05/04 01:09:01;;;;;;;6.10;1.65;;;;;;;11.39;100.00;99209.38;6224920;23;20568;-63
2022/05/04 01:11:47;;;;;;;8.02;1.85;;;;;;;11.52;100.00;99191.28;6214706;23;20078;-61
2022/05/04 01:14:31;;;;;;;6.38;2.05;;;;;;;11.50;100.00;99188.69;6224832;23;20051;-62
2022/05/04 01:17:16;;;;;;;10.25;2.58;;;;;;;11.34;100.00;99178.59;6225141;23;20112;-61
2022/05/04 01:20:00;;;;;;;4.45;2.00;;;;;;;11.40;100.00;99192.53;6225073;23;20024;-61
2022/05/04 01:22:45;;;;;;;3.03;1.30;;;;;;;11.47;100.00;99195.88;6224436;23;20394;-62
2022/05/04 01:25:29;;;;;;;3.55;1.70;;;;;;;11.46;100.00;99205.63;6223556;23;20465;-62
2022/05/04 01:28:14;;;;;;;3.70;1.77;;;;;;;11.36;100.00;99198.00;6220222;23;20083;-63
2022/05/04 01:30:58;;;;;;;5.13;1.95;;;;;;;11.37;100.00;99200.63;6221301;23;20075;-63
2022/05/04 01:33:44;;;;;;;5.03;1.63;;;;;;;11.25;100.00;99192.16;6185542;23;20020;-60
2022/05/04 01:36:29;;;;;;;3.88;1.88;;;;;;;11.25;100.00;99190.41;6220832;23;20023;-63
2022/05/04 01:39:13;;;;;;;3.65;1.88;;;;;;;11.27;100.00;99206.28;6220930;23;20066;-63
2022/05/04 01:42:03;;;;;;;4.97;1.55;;;;;;;11.05;100.00;99160.97;6210535;23;20315;-63
2022/05/04 01:44:48;;;;;;;3.15;1.58;;;;;;;11.24;100.00;99195.75;6220314;23;20055;-62
2022/05/04 01:47:32;;;;;;;6.55;1.67;;;;;;;11.12;100.00;99180.22;6218623;23;20028;-63
2022/05/04 01:50:18;;;;;;;4.80;1.70;;;;;;;11.29;100.00;99185.84;6217025;23;20538;-64
2022/05/04 01:53:02;;;;;;;6.88;1.33;;;;;;;11.23;100.00;99168.34;6203400;23;20082;-62
2022/05/04 01:55:48;;;;;;;4.18;1.40;;;;;;;11.24;100.00;99163.91;6205758;23;20020;-63
2022/05/04 01:58:33;;;;;;;4.00;1.33;;;;;;;11.33;100.00;99204.28;6217200;23;20457;-64
2022/05/04 02:01:17;;;;;;;4.47;1.88;;;;;;;11.09;100.00;99205.06;6217605;23;20365;-62
2022/05/04 02:04:03;;;;;;;2.13;1.40;;;;;;;10.96;100.00;99198.38;6219251;23;20023;-63
2022/05/04 02:06:47;;;;;;;4.82;1.95;;;;;;;10.84;100.00;99204.06;6216787;23;20504;-64
2022/05/04 02:09:32;;;;;;;3.15;1.48;;;;;;;10.82;100.00;99215.63;6219380;23;20027;-62
2022/05/04 02:12:16;;;;;;;4.53;1.35;;;;;;;10.73;100.00;99208.84;6194551;23;20035;-62
2022/05/04 02:15:03;;;;;;;2.72;1.20;;;;;;;10.67;100.00;99208.13;6219423;23;20023;-65
2022/05/04 02:17:47;;;;;;;2.42;1.33;;;;;;;10.50;100.00;99175.94;6186428;23;20685;-62
2022/05/04 02:20:32;;;;;;;2.53;1.58;;;;;;;10.55;100.00;99214.66;6220619;23;20024;-62
2022/05/04 02:23:16;;;;;;;2.70;1.55;;;;;;;10.53;100.00;99216.50;6221409;23;20027;-61
2022/05/04 02:26:01;;;;;;;2.63;1.35;;;;;;;10.28;100.00;99188.09;6186849;23;20066;-63
2022/05/04 02:28:46;;;;;;;5.32;1.58;;;;;;;10.46;100.00;99220.22;6210079;23;20070;-64
2022/05/04 02:31:30;;;;;;;3.00;1.50;;;;;;;10.45;100.00;99213.19;6216345;23;20089;-63
2022/05/04 02:34:15;;;;;;;4.88;1.30;;;;;;;10.58;100.00;99222.53;6218814;23;20047;-64
2022/05/04 02:40:03;;;;;;;2.67;1.23;;;;;;;10.51;100.00;99230.69;6183983;23;20461;-63
2022/05/04 02:42:47;;;;;;;3.60;1.30;;;;;;;10.37;100.00;99219.63;6196094;23;20018;-61
2022/05/04 02:45:31;;;;;;;3.45;1.60;;;;;;;10.36;100.00;99225.84;6219095;23;20100;-62
2022/05/04 02:48:16;;;;;;;2.50;1.33;;;;;;;10.04;100.00;99171.03;6221551;23;20019;-63
2022/05/04 02:51:00;;;;;;;4.65;1.40;;;;;;;10.36;100.00;99244.38;6216792;23;20109;-63
2022/05/04 02:53:44;;;;;;;5.38;1.60;;;;;;;10.32;100.00;99224.19;6205524;23;20019;-68
2022/05/04 02:56:29;;;;;;;3.88;1.90;;;;;;;10.40;100.00;99246.03;6216662;23;20019;-63
2022/05/04 02:59:13;;;;;;;3.92;1.70;;;;;;;10.36;100.00;99250.53;6214693;23;20086;-64
2022/05/04 03:05:06;;;;;;;4.45;1.95;;;;;;;10.49;100.00;99261.69;6218082;23;20024;-62
2022/05/04 03:07:51;;;;;;;6.55;1.55;;;;;;;10.51;100.00;99259.84;6195916;23;20035;-62
2022/05/04 03:13:40;;;;;;;4.70;1.55;;;;;;;10.71;100.00;99262.78;6187990;23;20019;-63
2022/05/04 03:16:24;;;;;;;4.38;1.42;;;;;;;10.97;100.00;99279.72;6218478;23;20035;-63
2022/05/04 03:19:08;;;;;;;3.78;1.58;;;;;;;11.05;100.00;99282.13;6220828;23;20343;-62
2022/05/04 03:21:54;;;;;;;6.47;1.60;;;;;;;10.93;100.00;99269.22;6197426;23;20262;-62
2022/05/04 03:24:38;;;;;;;4.30;1.60;;;;;;;10.71;100.00;99231.84;6220521;23;20086;-62
2022/05/04 03:27:23;;;;;;;5.80;1.75;;;;;;;11.02;100.00;99255.69;6220780;23;20383;-62
2022/05/04 03:30:08;;;;;;;5.87;1.70;;;;;;;11.18;100.00;99280.84;6220355;23;20096;-64
2022/05/04 03:32:52;;;;;;;5.90;1.90;;;;;;;11.16;100.00;99277.38;6198105;23;20254;-62
2022/05/04 03:35:37;;;;;;;6.90;2.05;;;;;;;11.20;100.00;99281.69;6195762;23;20050;-62
2022/05/04 03:38:21;;;;;;;4.63;1.58;;;;;;;11.11;100.00;99274.00;6220838;23;20391;-63
2022/05/04 03:41:06;;;;;;;3.97;1.80;;;;;;;11.25;100.00;99288.59;6186408;23;20019;-61
2022/05/04 03:43:50;;;;;;;4.63;1.58;;;;;;;11.22;100.00;99287.78;6220811;23;20028;-61
2022/05/04 03:46:46;;;;;;;4.30;1.30;;;;;;;11.19;100.00;99290.56;6188488;23;20022;-63
2022/05/04 03:49:30;;;;;;;1.13;0.75;;;;;;;10.87;100.00;99294.16;6218056;23;20028;-65
2022/05/04 03:52:15;;;;;;;3.88;0.82;;;;;;;10.90;100.00;99290.53;6210418;23;20035;-65
2022/05/04 03:54:59;;;;;;;1.73;0.60;;;;;;;10.74;100.00;99292.75;6218209;23;20143;-69
2022/05/04 03:57:43;;;;;;;1.23;0.60;;;;;;;10.69;100.00;99307.06;6211157;23;20019;-64
2022/05/04 04:00:28;;;;;;;3.88;0.63;;;;;;;10.80;100.00;99302.34;6220197;23;20039;-66
2022/05/04 04:03:12;;;;;;;2.53;0.80;;;;;;;10.65;100.00;99279.78;6220327;23;20330;-64
2022/05/04 04:05:57;;;;;;;2.20;0.80;;;;;;;11.09;100.00;99313.84;6220349;23;20070;-63
2022/05/04 04:08:42;;;;;;;5.07;0.93;;;;;;;11.02;100.00;99267.19;6218994;23;20287;-69
2022/05/04 04:11:26;;;;;;;6.03;0.70;;;;;;;11.07;100.00;99314.81;6197510;23;20512;-62
2022/05/04 04:14:11;;;;;;;1.48;0.80;;;;;;;11.00;100.00;99295.53;6217510;23;20327;-62
2022/05/04 04:16:55;;;;;;;3.75;0.90;;;;;;;10.70;100.00;99290.22;6220288;23;20024;-62
2022/05/04 04:19:39;;;;;;;1.95;0.73;;;;;;;10.79;100.00;99289.97;6219442;23;20023;-64
2022/05/04 04:22:25;;;;;;;2.15;1.17;;;;;;;11.01;100.00;99307.00;6187750;23;20019;-65
2022/05/04 04:25:10;;;;;;;2.15;0.93;;;;;;;10.87;100.00;99303.88;6187034;23;20019;-63
2022/05/04 04:27:55;;;;;;;3.45;1.08;;;;;;;10.96;100.00;99291.22;6194996;23;20067;-70
2022/05/04 04:30:40;;;;;;;2.22;0.80;;;;;;;11.10;100.00;99307.63;6217803;23;20050;-63
2022/05/04 04:33:27;;;;;;;3.50;0.90;;;;;;;11.39;100.00;99320.88;6207485;23;20330;-65
2022/05/04 04:36:11;;;;;;;1.05;0.60;;;;;;;11.45;100.00;99320.69;6184344;23;20066;-66
2022/05/04 04:38:56;;;;;;;9.50;1.10;;;;;;;11.68;100.00;99328.88;6214609;23;20056;-63
2022/05/04 04:41:40;;;;;;;7.13;1.52;;;;;;;11.76;100.00;99324.19;6216646;23;20436;-64
2022/05/04 04:44:25;;;;;;;3.15;0.60;;;;;;;11.75;100.00;99324.22;6220360;23;20042;-64
2022/05/04 04:47:09;;;;;;;3.75;0.60;;;;;;;11.47;100.00;99310.03;6223340;23;20377;-64
2022/05/04 04:49:58;;;;;;;2.65;0.80;;;;;;;11.34;100.00;99311.31;6223344;23;20023;-63
2022/05/04 04:52:42;;;;;;;2.55;1.00;;;;;;;11.21;100.00;99302.88;6225064;23;20028;-65
2022/05/04 04:55:27;;;;;;;8.25;0.90;;;;;;;11.66;100.00;99309.44;6191158;23;20035;-65
2022/05/04 04:58:13;;;;;;;1.92;0.80;;;;;;;11.91;100.00;99325.47;6149880;23;20535;-62
2022/05/04 05:00:58;;;;;;;2.72;0.80;;;;;;;11.97;100.00;99299.56;6191320;23;20082;-63
2022/05/04 05:03:42;;;;;;;3.35;1.17;;;;;;;12.09;100.00;99336.38;6222032;23;20035;-64
2022/05/04 05:06:27;;;;;;;4.88;1.00;;;;;;;12.00;100.00;99346.41;6224152;23;20071;-63
2022/05/04 05:09:11;;;;;;;2.13;1.00;;;;;;;11.92;100.00;99340.50;6224550;23;20059;-62
2022/05/04 05:11:56;;;;;;;2.03;0.60;;;;;;;11.82;100.00;99339.03;6223355;23;20457;-63
2022/05/04 05:17:43;;;;;;;3.33;0.57;;;;;;;11.43;100.00;99342.91;6191135;23;20174;-61
2022/05/04 05:20:28;;;;;;;4.57;0.95;;;;;;;11.22;100.00;99304.59;6200600;23;20074;-63
2022/05/04 05:23:13;;;;;;;2.75;0.82;;;;;;;11.26;100.00;99327.47;6200532;23;20027;-63
2022/05/04 05:25:58;;;;;;;2.45;0.80;;;;;;;11.31;100.00;99341.47;6149478;23;20124;-62
2022/05/04 05:28:43;;;;;;;4.88;0.70;;;;;;;11.36;100.00;99336.03;6223591;23;20023;-64
2022/05/04 05:31:27;;;;;;;1.42;0.77;;;;;;;11.63;100.00;99343.19;6190584;23;20493;-63
2022/05/04 05:34:11;;;;;;;4.15;0.80;;;;;;;11.47;100.00;99333.94;6223168;23;20100;-63
2022/05/04 05:36:56;;;;;;;1.58;0.68;;;;;;;11.11;100.00;99293.44;6224807;23;20331;-62
2022/05/04 05:39:41;;;;;;;2.65;1.10;;;;;;;11.02;100.00;99306.97;6225918;23;20089;-64
2022/05/04 05:42:25;;;;;;;4.43;1.83;;;;;;;11.25;100.00;99344.31;6226378;23;20110;-62
2022/05/04 05:45:10;;;;;;;5.97;2.55;;;;;;;10.96;100.00;99328.34;6193264;23;20022;-64
2022/05/04 05:47:54;;;;;;;3.53;1.38;;;;;;;10.83;100.00;99312.84;6223989;23;20130;-62
2022/05/04 05:50:39;;;;;;;3.90;1.10;;;;;;;11.02;100.00;99341.47;6225166;23;20024;-62
2022/05/04 05:53:24;;;;;;;3.53;0.90;;;;;;;11.09;100.00;99351.00;6193700;23;20091;-63
2022/05/04 05:56:08;;;;;;;4.53;1.10;;;;;;;11.17;100.00;99351.63;6194261;23;20063;-64
2022/05/04 05:58:53;;;;;;;4.72;1.20;;;;;;;11.26;100.00;99343.41;6225492;23;20024;-63
2022/05/04 06:01:38;;;;;;;4.35;1.08;;;;;;;11.69;100.00;99350.97;6193487;23;20019;-64
2022/05/04 06:04:22;;;;;;;4.45;1.20;;;;;;;11.77;100.00;99331.22;6217661;23;20347;-64
2022/05/04 06:07:07;;;;;;;1.35;0.77;;;;;;;11.81;100.00;99354.13;6216214;23;20055;-64
2022/05/04 06:09:52;;;;;;;1.75;0.90;;;;;;;11.50;100.00;99323.19;6225357;23;20366;-62
2022/05/04 06:12:38;;;;;;;2.28;1.10;;;;;;;11.52;100.00;99346.13;6226300;23;20445;-62
2022/05/04 06:15:23;;;;;;;2.88;1.10;;;;;;;11.72;100.00;99329.63;6193089;23;20027;-63
2022/05/04 06:18:07;;;;;;;2.83;1.02;;;;;;;11.58;100.00;99356.56;6226754;23;20019;-62
2022/05/04 06:20:52;;;;;;;2.47;1.60;;;;;;;11.37;100.00;99321.84;6214013;23;20060;-63
2022/05/04 06:23:36;;;;;;;3.50;1.45;;;;;;;11.93;100.00;99367.00;6226616;23;20349;-63
2022/05/04 06:26:23;;;;;;;2.22;1.50;;;;;;;11.89;100.00;99364.47;6224753;23;20023;-62
2022/05/04 06:29:07;;;;;;;3.22;1.13;;;;;;;12.08;100.00;99357.66;6221819;23;20019;-62
2022/05/04 06:34:55;;;;;;;5.03;1.17;;;;;;;12.50;100.00;99325.19;6224573;23;20070;-63
2022/05/04 06:37:39;;;;;;;2.63;1.20;;;;;;;12.87;100.00;99343.38;6216006;23;20334;-62
2022/05/04 06:40:24;;;;;;;3.90;1.23;;;;;;;12.93;100.00;99354.69;6215833;23;20025;-62
2022/05/04 06:43:08;;;;;;;2.15;0.98;;;;;;;12.54;100.00;99349.91;6226119;23;20086;-63
2022/05/04 06:45:53;;;;;;;5.28;1.20;;;;;;;12.09;100.00;99327.50;6215898;23;20047;-62
2022/05/04 06:48:37;;;;;;;29.27;3.55;;;;;;;12.21;100.00;99372.28;6224721;23;20477;-62
2022/05/04 06:51:22;;;;;;;4.70;1.13;;;;;;;12.44;100.00;99377.72;6215766;23;20075;-64
2022/05/04 06:54:08;;;;;;;3.35;1.13;;;;;;;12.11;100.00;99325.69;6224215;23;20095;-63
2022/05/04 06:56:52;;;;;;;6.55;1.42;;;;;;;12.64;100.00;99376.13;6225886;23;20067;-64
2022/05/04 06:59:37;;;;;;;3.08;0.90;;;;;;;12.87;100.00;99370.88;6224156;23;20023;-63
2022/05/04 07:02:21;;;;;;;6.32;1.38;;;;;;;13.22;100.00;99373.13;6225576;23;20375;-65
2022/05/04 07:05:06;;;;;;;3.33;1.10;;;;;;;13.64;100.00;99366.22;6225475;23;20065;-62
2022/05/04 07:07:51;;;;;;;3.75;0.93;;;;;;;14.01;97.34;99368.31;6224883;23;20024;-63
2022/05/04 07:10:35;;;;;;;5.38;1.10;;;;;;;14.65;90.35;99358.50;6201529;23;20140;-64
2022/05/04 07:13:21;;;;;;;7.00;0.95;;;;;;;14.39;85.55;99377.44;6172064;23;20016;-63
2022/05/04 07:16:06;;;;;;;;;;;;;;;14.05;91.50;99398.34;6225345;23;20074;-63
2022/05/04 07:18:51;;;;;;;11.32;1.10;;;;;;;13.00;100.00;99411.25;6202729;23;19910;-64
2022/05/04 07:21:35;;;;;;;28.20;1.45;;;;;;;11.62;100.00;99453.84;6225699;23;20154;-64
2022/05/04 07:24:20;;;;;;;5.72;1.25;;;;;;;10.19;100.00;99458.53;6225218;23;20387;-63
2022/05/04 07:27:06;;;;;;;3.42;0.80;;;;;;;9.40;100.00;99456.75;6215073;23;20062;-61
2022/05/04 07:29:51;;;;;;;2.17;0.50;;;;;;;8.81;100.00;99504.59;6216040;23;20089;-63
2022/05/04 07:32:35;;;;;;;3.17;0.82;;;;;;;8.58;100.00;99485.59;6225964;23;20031;-65
2022/05/04 07:35:19;;;;;;;1.27;0.57;;;;;;;8.65;100.00;99488.13;6215085;23;20079;-63
2022/05/04 07:38:04;;;;;;;1.52;0.60;;;;;;;9.10;100.00;99489.09;6226939;23;20027;-63
2022/05/04 07:43:52;;;;;;;1.83;0.95;;;;;;;10.09;100.00;99488.81;6226318;23;20074;-63
2022/05/04 07:46:36;;;;;;;2.25;1.10;;;;;;;10.45;100.00;99472.94;6172216;23;20034;-63
2022/05/04 07:49:20;;;;;;;2.22;1.00;;;;;;;11.17;100.00;99486.97;6225370;23;20035;-62
2022/05/04 07:52:05;;;;;;;2.55;1.20;;;;;;;13.45;100.00;99489.47;6224808;23;20020;-62
2022/05/04 07:54:50;;;;;;;3.78;1.10;;;;;;;15.52;100.00;99497.09;6222473;23;20067;-63
2022/05/04 07:57:34;;;;;;;2.47;1.23;;;;;;;16.92;100.00;99510.03;6225097;23;20066;-63
2022/05/04 08:06:24;;;;;;;4.85;1.10;;;;;;;19.04;87.45;99511.88;6225144;23;20020;-64
2022/05/04 08:09:08;;;;;;;4.68;1.40;;;;;;;19.87;79.51;99509.53;6224851;23;20086;-64
2022/05/04 08:11:53;;;;;;;2.67;1.15;;;;;;;18.52;89.67;99510.44;6224668;23;20073;-64
2022/05/04 08:14:41;;;;;;;3.58;1.00;;;;;;;16.84;88.37;99473.84;6224588;23;20402;-63
2022/05/04 08:17:25;;;;;;;1.48;0.85;;;;;;;16.02;95.39;99516.22;6225555;23;20086;-64
2022/05/04 08:20:11;;;;;;;2.90;0.85;;;;;;;14.87;95.72;99500.81;6225448;23;20024;-65
2022/05/04 08:22:59;;;;;;;6.78;1.05;;;;;;;15.06;97.70;99523.13;6202024;23;20074;-63
2022/05/04 08:25:45;;;;;;;1.77;0.85;;;;;;;14.73;97.46;99479.16;6225139;23;20510;-63
2022/05/04 08:28:30;;;;;;;2.38;0.93;;;;;;;14.82;100.00;99533.03;6215523;23;20027;-62
2022/05/04 08:31:14;;;;;;;1.48;0.93;;;;;;;14.82;93.20;99505.47;6221087;23;20019;-63
2022/05/04 08:33:59;;;;;;;1.92;0.80;;;;;;;14.44;94.04;99528.34;6216923;23;20019;-69
2022/05/04 08:36:43;;;;;;;1.10;0.70;;;;;;;13.79;97.96;99549.50;6208329;23;20023;-63
2022/05/04 08:39:28;;;;;;;2.15;0.90;;;;;;;13.13;100.00;99550.97;6183036;23;20019;-62
2022/05/04 08:42:13;;;;;;;4.93;2.00;;;;;;;13.24;100.00;99546.16;6218987;23;20090;-63
2022/05/04 08:44:58;;;;;;;1.15;0.73;;;;;;;12.99;100.00;99554.13;6207288;23;20027;-63
2022/05/04 08:47:45;;;;;;;3.50;0.65;;;;;;;13.27;100.00;99567.34;6187353;23;20019;-63
2022/05/04 08:50:29;;;;;;;1.23;0.52;;;;;;;13.67;95.15;99547.28;6219849;23;20449;-63
2022/05/04 08:53:14;;;;;;;1.23;0.60;;;;;;;15.96;77.85;99562.81;6209443;23;20043;-66
2022/05/04 08:55:59;;;;;;;1.45;0.50;;;;;;;17.62;64.90;99534.16;6219941;23;20019;-63
2022/05/04 08:58:43;;;;;;;;;;;;;;;19.15;65.41;99570.38;6217943;23;20063;-62
2022/05/04 09:01:27;;;;;;;1.20;0.80;;;;;;;20.25;45.50;99527.75;6219769;23;19911;-63
2022/05/04 09:04:12;;;;;;;3.42;1.10;;;;;;;21.56;42.46;99567.59;6218281;23;20022;-62
2022/05/04 09:06:56;;;;;;;1.95;0.82;;;;;;;22.51;35.70;99553.69;6219851;23;20023;-64
2022/05/04 09:09:45;;;;;;;3.70;0.77;;;;;;;23.13;33.95;99570.75;6219912;23;20406;-63
2022/05/04 09:12:33;;;;;;;2.17;0.70;;;;;;;22.71;32.80;99560.34;6218931;23;20070;-66
2022/05/04 09:15:29;;;;;;;2.47;0.82;;;;;;;22.85;32.75;99561.06;6219364;23;20159;-63
2022/05/04 09:18:16;;;;;;;1.13;0.90;;;;;;;21.81;34.86;99559.59;6202187;23;20036;-64
2022/05/04 09:21:04;;;;;;;2.47;0.80;;;;;;;20.70;36.18;99556.28;6223688;23;20020;-63
2022/05/04 09:23:53;;;;;;;4.25;0.90;;;;;;;18.70;42.40;99565.78;6224090;23;20027;-62
2022/05/04 09:26:43;;;;;;;3.65;0.65;;;;;;;17.93;46.09;99586.09;6224498;23;20326;-67
2022/05/04 09:29:35;;;;;;;2.45;0.60;;;;;;;16.94;50.26;99593.84;6170834;23;20032;-62
2022/05/04 09:32:21;;;;;;;2.17;0.60;;;;;;;15.96;53.54;99568.16;6171019;23;20020;-62
2022/05/04 09:35:16;;;;;;;3.40;1.10;;;;;;;18.08;47.68;99608.59;6201817;23;20055;-64
2022/05/04 09:47:21;;;;;;;3.40;0.85;;;;;;;20.32;34.02;99623.34;6223962;23;20338;-65
2022/05/04 09:50:08;;;;;;;2.03;0.95;;;;;;;17.98;40.63;99586.75;6214970;23;20023;-67
2022/05/04 09:52:56;;;;;;;2.97;0.98;;;;;;;15.62;56.56;99642.75;6224327;23;20090;-66
2022/05/04 09:55:43;;;;;;;5.43;1.23;;;;;;;13.93;76.33;99632.47;6150236;23;20140;-63
2022/05/04 09:58:29;;;;;;;5.32;0.90;;;;;;;13.09;88.98;99653.16;6224740;23;20024;-69
2022/05/04 10:01:14;;;;;;;9.93;1.80;;;;;;;12.41;94.33;99647.25;6224644;23;20024;-64
2022/05/04 10:04:00;;;;;;;;;;;;;;;12.49;90.66;99663.84;6209619;23;20062;-65
2022/05/04 10:06:51;;;;;;;3.90;0.80;;;;;;;12.64;86.53;99675.81;6181196;23;19958;-64
2022/05/04 10:09:35;;;;;;;4.18;0.88;;;;;;;13.66;79.01;99667.22;6212200;23;20071;-63
2022/05/04 10:12:20;;;;;;;3.28;0.82;;;;;;;15.93;63.17;99680.63;6224537;23;20022;-63
2022/05/04 10:15:10;;;;;;;3.20;0.82;;;;;;;18.66;48.11;99682.41;6224896;23;20096;-63
2022/05/04 10:17:58;;;;;;;2.00;1.05;;;;;;;21.08;39.49;99674.19;6222649;23;20024;-67
2022/05/04 10:20:54;;;;;;;5.07;1.65;;;;;;;22.75;33.25;99672.72;6222906;23;20035;-68
2022/05/04 10:23:46;;;;;;;3.38;1.08;;;;;;;24.35;28.14;99665.13;6224882;23;20062;-65
2022/05/04 10:26:35;;;;;;;6.47;3.85;;;;;;;24.41;25.52;99687.19;6225700;23;20091;-66
2022/05/04 10:32:36;;;;;;;1.98;0.90;;;;;;;25.68;22.20;99666.94;6224481;23;20023;-65
2022/05/04 10:35:22;;;;;;;1.83;0.80;;;;;;;25.81;21.40;99673.94;6224035;23;20086;-67
2022/05/04 10:38:29;;;;;;;1.30;0.80;;;;;;;27.39;21.34;99678.19;6224837;23;20342;-66
2022/05/04 10:41:13;;;;;;;2.83;0.88;;;;;;;27.04;20.48;99672.28;6212358;23;20100;-65
2022/05/04 10:43:57;;;;;;;;;;;;;;;27.94;20.93;99683.97;6224631;23;20441;-64
2022/05/04 10:46:46;;;;;;;8.90;1.38;;;;;;;26.55;20.17;99669.41;6213241;23;20086;-64
2022/05/04 10:49:35;;;;;;;2.75;0.60;;;;;;;25.68;20.87;99675.09;6214579;23;20019;-66
2022/05/04 10:52:19;;;;;;;3.47;0.85;;;;;;;25.06;20.56;99625.91;6213739;23;20035;-66
2022/05/04 10:55:05;;;;;;;1.05;0.73;;;;;;;23.43;23.23;99655.97;6225661;23;20016;-69
2022/05/04 10:57:51;;;;;;;1.70;0.80;;;;;;;23.66;23.29;99663.22;6226281;23;20106;-70
2022/05/04 11:01:04;;;;;;;1.80;1.00;;;;;;;22.21;25.10;99661.19;6225534;23;20024;-67
2022/05/04 11:04:11;;;;;;;3.85;1.00;;;;;;;21.35;27.16;99653.53;6214190;23;20370;-66
2022/05/04 11:07:06;;;;;;;2.95;1.00;;;;;;;20.90;28.17;99669.06;6225254;23;20019;-65
2022/05/04 11:09:59;;;;;;;2.55;1.10;;;;;;;19.38;29.74;99659.53;6225939;23;20034;-63
2022/05/04 11:12:44;;;;;;;4.30;1.00;;;;;;;18.36;32.76;99648.28;6225476;23;20079;-65
2022/05/04 11:15:30;;;;;;;2.00;0.93;;;;;;;17.51;35.85;99652.69;6222646;23;20430;-64
2022/05/04 11:18:24;;;;;;;5.65;1.10;;;;;;;16.79;39.34;99616.03;6224330;23;20062;-70
2022/05/04 11:21:14;;;;;;;3.45;1.40;;;;;;;15.40;55.16;99657.97;6225507;23;20020;-63
2022/05/04 11:24:05;;;;;;;4.60;1.40;;;;;;;13.69;79.98;99675.13;6224934;23;20055;-62
2022/05/04 11:26:51;;;;;;;2.90;1.33;;;;;;;12.50;100.00;99717.94;6214043;23;20024;-64
2022/05/04 11:29:35;;;;;;;2.95;1.25;;;;;;;12.19;100.00;99732.97;6225182;23;20020;-62
2022/05/04 11:32:21;;;;;;;2.40;1.30;;;;;;;12.04;100.00;99730.72;6215405;23;20020;-64
2022/05/04 11:35:14;;;;;;;3.28;1.10;;;;;;;12.81;100.00;99729.41;6224814;23;20059;-64
2022/05/04 11:37:58;;;;;;;1.48;1.00;;;;;;;12.98;100.00;99698.75;6223227;23;20096;-63
2022/05/04 11:40:45;;;;;;;1.88;1.00;;;;;;;13.95;97.73;99733.72;6224028;23;20485;-63
2022/05/04 11:43:35;;;;;;;1.30;1.08;;;;;;;14.64;86.71;99739.25;6225742;23;20059;-64
2022/05/04 11:46:21;;;;;;;3.05;1.00;;;;;;;14.39;84.66;99733.06;6223604;23;20098;-64
2022/05/04 11:49:11;;;;;;;3.17;1.40;;;;;;;13.64;89.40;99733.88;6225008;23;20062;-64
2022/05/04 11:52:02;;;;;;;16.60;1.65;;;;;;;13.27;94.34;99741.31;6215085;23;20068;-63
2022/05/04 11:54:46;;;;;;;3.50;1.15;;;;;;;12.64;87.96;99723.72;6223987;23;20028;-63
2022/05/04 11:57:42;;;;;;;3.58;1.10;;;;;;;12.61;88.00;99716.69;6224673;23;20088;-65
2022/05/04 12:00:27;;;;;;;2.65;1.17;;;;;;;12.80;85.52;99720.56;6223594;23;20015;-63
2022/05/04 12:03:12;;;;;;;2.13;1.20;;;;;;;13.02;80.36;99710.19;6224158;23;20032;-63
2022/05/04 12:05:57;;;;;;;;;;;;;;;13.28;74.11;99723.53;6202253;23;20019;-63
2022/05/04 12:08:42;;;;;;;3.08;0.98;;;;;;;12.69;74.37;99705.81;6224729;23;20348;-64
2022/05/04 12:11:30;;;;;;;1.67;0.70;;;;;;;13.14;70.19;99717.78;6214457;23;20090;-64
2022/05/04 12:14:15;;;;;;;1.13;0.63;;;;;;;13.65;63.04;99724.13;6215020;23;20044;-63
2022/05/04 12:16:59;;;;;;;2.28;0.90;;;;;;;13.77;60.37;99724.56;6201461;23;20071;-65
2022/05/04 12:19:45;;;;;;;3.17;0.85;;;;;;;14.20;60.90;99694.59;6223786;23;20087;-64
2022/05/04 12:22:30;;;;;;;3.42;1.20;;;;;;;14.31;55.88;99715.63;6223997;23;20382;-63
2022/05/04 12:25:15;;;;;;;2.90;1.20;;;;;;;14.64;57.83;99727.72;6201745;23;20031;-62
2022/05/04 12:28:00;;;;;;;2.85;1.30;;;;;;;15.04;57.97;99722.63;6224732;23;20020;-65
2022/05/04 12:33:49;;;;;;;5.90;1.60;;;;;;;14.78;58.30;99725.41;6224867;23;20028;-64
2022/05/04 12:36:33;;;;;;;;;;;;;;;14.57;59.14;99747.56;6224081;23;20101;-65
2022/05/04 12:39:22;;;;;;;7.55;2.20;;;;;;;14.54;59.13;99748.53;6215124;23;20329;-64
2022/05/04 12:42:07;;;;;;;2.55;1.50;;;;;;;14.34;59.69;99752.84;6214807;23;20059;-64
2022/05/04 12:44:54;;;;;;;4.63;1.52;;;;;;;14.08;63.35;99751.03;6223393;23;20028;-65
2022/05/04 12:47:38;;;;;;;3.58;1.40;;;;;;;14.12;63.30;99757.16;6224607;23;20431;-64
2022/05/04 12:50:29;;;;;;;3.50;1.60;;;;;;;13.97;62.27;99763.00;6170917;23;20099;-66
2022/05/04 12:53:16;;;;;;;3.08;1.40;;;;;;;13.84;63.51;99763.41;6212858;23;20023;-65
2022/05/04 12:59:05;;;;;;;9.13;1.20;;;;;;;13.73;63.20;99725.59;6191573;23;20019;-64
2022/05/04 13:01:50;;;;;;;3.22;1.15;;;;;;;14.12;58.02;99733.16;6223146;23;20043;-65
2022/05/04 13:04:34;;;;;;;7.45;1.48;;;;;;;14.62;56.90;99757.13;6224260;23;20074;-64
2022/05/04 13:07:19;;;;;;;2.20;0.80;;;;;;;14.49;54.17;99761.19;6224689;23;20059;-65
2022/05/04 13:10:04;;;;;;;2.58;0.98;;;;;;;14.56;51.74;99757.34;6202008;23;20020;-65
2022/05/04 13:12:48;;;;;;;1.88;0.90;;;;;;;14.35;49.02;99751.94;6192229;23;20364;-66
2022/05/04 13:15:33;;;;;;;2.58;1.13;;;;;;;14.04;52.55;99762.72;6224321;23;20019;-64
2022/05/04 13:18:20;;;;;;;4.20;1.40;;;;;;;13.94;53.31;99767.50;6180990;23;20082;-69
2022/05/04 13:21:05;;;;;;;2.45;0.82;;;;;;;12.99;56.40;99732.44;6224826;23;20078;-66
2022/05/04 13:23:50;;;;;;;3.00;1.10;;;;;;;12.88;57.03;99742.50;6225100;23;20055;-66
2022/05/04 13:26:34;;;;;;;2.50;1.08;;;;;;;12.72;58.49;99773.13;6191993;23;20441;-65
2022/05/04 13:29:19;;;;;;;5.70;1.02;;;;;;;12.39;60.39;99773.19;6194078;23;20119;-65
2022/05/04 13:32:05;;;;;;;2.92;1.10;;;;;;;12.16;63.94;99795.09;6224926;23;20096;-65
2022/05/04 13:34:49;;;;;;;2.22;0.90;;;;;;;11.97;65.33;99815.06;6224714;23;20015;-65
2022/05/04 13:37:33;;;;;;;7.20;1.10;;;;;;;11.81;67.58;99815.47;6213800;23;20023;-65
2022/05/04 13:40:18;;;;;;;3.08;0.90;;;;;;;11.70;70.72;99818.38;6191681;23;20035;-65
2022/05/04 13:43:03;;;;;;;3.72;1.00;;;;;;;11.59;71.25;99820.38;6202204;23;20020;-65